INDIA METEOROLOGICAL DEPARTMENT, R.M.C. NEW DELHI
Dated:22-11-2017
METARS


Agartala   
VEAT 220830Z 33005KT 4000 HZ FEW020 29/21 Q1007 NOSIG=
Ahmedabad  
VAAH 220830Z 36006KT 5000 FU NSC 30/12 Q1012 NOSIG=
Allahabad  
VEAB 220830Z 27008KT 5000 HZ SKC 25/08 Q1012 NOSIG=
Amritsar   
VIAR 220830Z 30010KT 3000 HZ NSC 24/10 Q1015 NOSIG=
Aurangabad 
VAAU 220800Z 25005KT 6000 FEW020 SCT025 31/22 Q1013 NOSING=
Bangalore  
VOBL 220830Z 11012KT 080V140 9999 SCT012 SCT018 28/16 Q1014 NOSIG=
Baroda     
VABO 220700Z 05003KT 5000 FU NSC 28/13 Q1012 NOSIG=
Bhopal     
VABP 220800Z 07008KT 4000 HZ SCT025 SCT100 25/09 Q1014 NOSIG=
Bhubaneswar
VEBS 220830Z 03005KT 4000 HZ NSC 29/16 Q1009 NOSIG=
Chennai    
VOMM 220830Z 04007KT 8000 FEW020 32/24 Q1009 NOSIG=
Coimbatore 
VOCB 220830Z 08010KT 8000 SCT015 FEW018TCU 32/18 Q1010 NOSIG=
Colombo    
VCBI 220840Z 31006KT 260V020 9999 SCT016 FEW018CB 30/24 Q1006 NOSIG RMK N/NE/E/SE=
Delhi      
VIDP 220830Z 30010KT 4000 HZ NSC 25/02 Q1014 NOSIG=
Dehradun   
VIDN 220800Z 25005KT 5000 HZ NSC 24/08 Q1013 =
Gauhati    
VEGT 220830Z 03008KT 2000 HZ FEW018 28/22 Q1008 NOSIG=
Gaya       
VEGY 220830Z 34009KT 3500 HZ NSC 25/05 Q1012 NOSIG=
Goa        
VOGO 220830Z 25006KT 6000 FEW016 34/24 Q1007 NOSIG=
Fursatganj 
VERB 220800Z 27008KT 3500 HZ NSC 25/07 Q1012 =
Hyderabad  
VOHS 220830Z 13003KT 6000 SCT015 31/20 Q1013 NOSIG=
Imphal     
VEIM 220830Z 13008KT 4000 HZ FEW100 27/17 Q1010 NOSIG=
Indore     
VAID 220800Z 07005KT 3000 HZ NSC 26/13 Q1014 NOSIG=
Jabalpur   
VAJB 220700Z 00000KT 3000 HZ SCT025 BKN100 24/12 Q1015=
Jaipur     
VIJP 220830Z 34006KT 3000 HZ NSC 24/M06 Q1016 BECMG 5000 HZ=
Kochi      
VOCI 220830Z 27005KT 5000 HZ SCT020 32/24 Q1006 NOSIG=
Kolkata    
VECC 220830Z 36007KT 3500 HZ FEW020 26/08 Q1009 NOSIG=
Kozhikode  
VOCL 220830Z 23006KT 7000 SCT012 SCT018 32/25 Q1007 NOSIG=
Lucknow    
VILK 220830Z 28005KT 3000 HZ NSC 25/10 Q1012 NOSIG=
Ludhiana   
VILD 220800Z 28004KT 1800 HZ NSC 24/06 Q1014 =
Madurai    
VOMD 220830Z 03006KT 7000 FEW020 SCT100 33/22 Q1008 NOSIG =
Mohanbari  
VEMN 220830Z 14002KT 6000 FEW025 29/19 Q1008 NOSIG=
Mumbai     
VABB 220830Z 29009KT 3000 FU FEW020 35/20 Q1009 NOSIG=
Nagpur     
VANP 220830Z 00000KT 2500 HZ BKN090 30/17 Q1012 NOSIG=
Patna      
VEPT 220830Z 28006KT 2500 HZ NSC 25/11 Q1010 NOSIG=
Raipur     
VERP 220730Z 32003KT 4000 HZ FEW020 SCT100 30/14 Q1012 TEMPO VIS 3000 IN HZ=
Safdarjung 
VIDD 220830Z 29006KT 4000 FU NSC 24/03 Q1014 NOSIG=
Ranchi     
VERC 220830Z 34006KT 5000 HZ NSC 25/04 Q1013 NOSIG=
Trichy     
VOTR 220830Z 05010KT 6000 FEW016 SCT020 32/24 Q1007 NOSIG=
Trivandrum 
VOTV 220830Z 24005KT 5000 HZ SCT012 FEW025CB BKN080 30/25 Q1006 NOSIG=
Udaipur    
VAUD 220800Z 06003KT 5000 HZ NSC 25/05 Q1016 NOSIG=
Varanasi   
VEBN 220830Z 31008KT 3500 HZ NSC 24/11 Q1011 NOSIG=
Vizag      
VOVZ 220800Z 12010KT 4500 HZ/FU FEW018 32/22 Q1009 NOSIG =
Male       
VRMM 220800Z 34004KT 9999 SCT017 FEW018CB 30/26 Q1007 CB NW TEMPO 7000 -TSRA=
Kathmandu  
VNKT 220850Z 26004KT 8000 FEW020 21/08 Q1014 NOSIG=
Dhaka      
VGHS 220830Z 32009KT 3500 HZ NSC 28/14 Q1008 NOSIG=
Colombo    
VCBI 220840Z 31006KT 260V020 9999 SCT016 FEW018CB 30/24 Q1006 NOSIG RMK N/NE/E/SE=
Karachi    
OPKC 220825Z 03004KT 6000 NSC 28/04 Q1012 NOSIG=
Lahore     
OPLA 220825Z 32007KT 5000 HZ NSC 25/04 Q1015/A29.97=
Leh        
VILH 220730Z VRB02KT 6000 FEW070 07/-21 Q1026 NOSIG=
Sri Nagar  
VISR 220730Z VBR02KT 4000 FU SKC 10/02 NOSIG=
Jammu      
VIJU 220830Z 26005KT 6000 SKC 24/07 Q1014 NOSIG=
Gorakhpur  
VEGK 220830Z 30008KT 4000 HZ SKC 25/09 Q1011 NOSIG=
Bagdogra   
VEBD 220830Z 18003KT 3000 HZ FEW030 SCT250 27/20 Q1009 NOSIG=
Pune       
VAPO 220830Z 22004KT 6000 SCT030 SCT080 31/20 Q1013 NOSIG=
Chandigarh 
VICG 220830Z 32008KT 5000 FU SKC 24/07 Q1014 NOSIG=